Qiqihar, China
Current Conditions -  °F | °C
As of 10:00 PM on Monday 22 Dec 2014 (Local Time) from ZYHB Reporting Station
Smoke Smoke  
Wind Chill: -18°   Ceiling: Unl
Heat Index: -4°   Visibility: 1.8mi
Dew Point: -9°   Wind: 7mph
Humidity: 78%   Direction: 160°SSE
Pressure: 30.12"   Gusts: NA
Location:  47.35°N, 124°E
Report Text: ZYHB 221400Z 16003MPS 3000 FU NSC M20/M23 Q1020 BECMG TL15002500
Loading
Personal Weather Stations






























Interactive Weather Map New forecast layout! Learn more

10-Day Weather Forecast

Advertisements
Track Severe Weather on mobile